• Season
  • Course
  • BIB Lookup
 
Raleigh, NC Raleigh Ella's Race, NC March 23, 2013

Overall

551 Runners
1844.29 Miles Run
330 Hours Running

1 Mile

102 Runners
102.04 Miles Run
20 Hours Running
00:12:07 Avgerage Time
20 Average Age

5K

337 Runners
1047.01 Miles Run
202 Hours Running
00:36:02 Avgerage Time
29 Average Age

10K

112 Runners
695.24 Miles Run
108 Hours Running
00:58:00 Avgerage Time
37 Average Age
Overall Place Gender Place Age Place BIB # Name Age Division Time
1 1 1 591 Jared Goldman M10-14 00:18:48
2 2 1 617 Michael Bloemeke M15-19 00:18:40
3 3 2 115 Nathan Gamble M10-14 00:19:35
4 4 2 468 Keeton Glenn M15-19 00:19:59
5 5 3 480 Meade Baskerville M15-19 00:20:19
6 6 1 114 Eric Gamble M40-44 00:20:32
7 7 4 495 Peter Marino M15-19 00:20:58
8 8 3 183 brock johnston M10-14 00:21:02
9 9 4 153 Lowell Hensgen M10-14 00:21:05
10 10 1 344 Colin Sinko M25-29 00:21:13
11 11 1 81 Michael Doggett M45-49 00:21:16
12 1 1 224 Ashley McDuffee F25-29 00:21:23
13 12 5 255 Zachary Nolan M10-14 00:22:08
14 13 6 278 Caleb Petty M10-14 00:22:08
15 14 1 74 Charlie Dew M20-24 00:22:18
16 15 7 236 Jacob Miles M10-14 00:22:33
17 16 8 579 Timothy Wipperman M10-14 00:22:34
18 2 1 611 Meghan Goldman F10-14 00:22:40
19 17 1 246 Tim Morgan M50-54 00:22:57
20 18 9 251 Dennis Njiru M10-14 00:23:03
21 19 10 368 Benton Theissen M10-14 00:23:28
22 20 11 79 M. Sean Doggett M10-14 00:23:32
23 21 12 465 Zackary Elston M10-14 00:23:43
24 22 2 551 Bryan Bunn M25-29 00:23:45
25 23 13 618 Joseph Watts M10-14 00:23:48
26 24 5 608 Tanner Patrick M15-19 00:23:56
27 25 2 325 William Salmon M45-49 00:23:58
28 3 2 481 Leah Behrends F10-14 00:24:18
29 26 14 323 Owen Salmon M10-14 00:24:26
30 4 2 234 Courtney Menard F25-29 00:24:36
31 27 15 324 Will Salmon M10-14 00:24:44
32 28 2 523 Chris Kast M40-44 00:24:52
33 5 3 500 Kristin Weimer F25-29 00:25:06
34 29 3 499 Eric Weimer M25-29 00:25:10
35 6 4 256 Sara Norton F25-29 00:25:14
36 30 3 446 John Mecimore M45-49 00:25:16
37 31 16 616 John Bloemeke M10-14 00:25:16
38 7 1 87 Michelle Dreese F40-44 00:25:40
39 32 1 358 Brian Storey M35-39 00:25:43
40 33 17 478 Jackson Amigh M10-14 00:25:51
41 8 2 112 Becky Gamble F40-44 00:26:05
42 34 18 68 marcus dameron jr M10-14 00:26:08
43 35 1 479 Kevin Amigh M55-59 00:26:16
44 36 3 369 Brian Theissen M40-44 00:26:23
45 9 1 84 Suzie Donabedian F50-54 00:26:26
46 37 2 402 Chris White M55-59 00:26:26
47 38 4 458 Todd Welch M40-44 00:26:44
48 39 19 277 Jeffry Perry M10-14 00:26:46
49 40 20 295 Austin Reiss M10-14 00:26:51
50 10 1 310 Elizabeth Rosinski F20-24 00:27:12
51 41 1 279 Aris Pilos M0-9 00:27:13
52 11 3 280 Michelle Pilos F40-44 00:27:16
53 42 2 522 Jiggs Fey M50-54 00:27:20
54 12 3 15 Sarah Baskerville F10-14 00:27:23
55 13 4 360 Samantha Storey F10-14 00:27:27
56 14 4 450 Beth Moye F40-44 00:27:31
57 43 21 572 Patrick King M10-14 00:27:32
58 15 5 595 Theresa Shea F40-44 00:27:35
59 44 22 250 Collins Njiru M10-14 00:27:41
60 45 2 370 Chris Thompson M20-24 00:27:45
61 46 23 91 Justin Dunn M10-14 00:27:47
62 47 24 394 Adam Wenzel M10-14 00:27:53
63 48 25 403 Christian Williams M10-14 00:27:58
64 49 6 257 David Ogburn M15-19 00:28:05
65 16 1 229 Erin McKenzie F30-34 00:28:07
66 17 5 113 Elizabeth Gamble F10-14 00:28:30
67 18 6 529 Cathy Gephart F40-44 00:28:30
68 50 5 408 Thomas Wright M40-44 00:28:32
69 51 6 193 Michael Kaney M40-44 00:28:40
70 19 6 192 Emory Kaney F10-14 00:28:40
71 20 1 447 Rebecca Mecimore F15-19 00:28:43
72 52 26 563 Nathan Kearney M10-14 00:28:53
73 21 7 564 Jennifer Kearney F40-44 00:28:53
74 53 4 526 Mark Buckalew M45-49 00:29:03
75 22 2 171 Lauren Jannik F30-34 00:29:06
76 23 5 329 Molly Scanlon F25-29 00:29:07
77 24 2 266 Meredith Oldham F20-24 00:29:10
78 25 2 298 Caroline Ricke F15-19 00:29:12
79 54 1 156 Thomas High M30-34 00:29:16
80 26 3 155 Erika High F30-34 00:29:16
81 55 27 227 Nate McGrath M10-14 00:29:26
82 56 28 196 Grayson King M10-14 00:29:45
83 57 5 315 John Ruocchio M45-49 00:29:51
84 58 29 540 Ethan Qualle M10-14 00:29:53
85 59 30 286 Taylor Puckett M10-14 00:29:56
86 27 1 21 lauren bellobuono-hicks F35-39 00:29:59
87 28 7 283 Stacey Protasowicki F10-14 00:30:07
88 29 4 326 Betsy Sandifer F30-34 00:30:07
89 60 6 285 Richard Puckett M45-49 00:30:07
90 61 31 514 Paul Phillips M10-14 00:30:11
91 62 2 99 John Enzor M30-34 00:30:16
92 63 7 95 Jack Elliott M15-19 00:30:19
93 30 1 332 Samantha Schantz F0-9 00:30:21
94 64 7 571 Dave King M45-49 00:30:22
95 65 8 303 John Ridge M45-49 00:30:25
96 66 9 73 Mike DeSilva M45-49 00:30:26
97 67 32 606 Garrett Patrick M10-14 00:30:27
98 31 8 140 Makenzie Hedrick F10-14 00:30:28
99 32 9 253 Sydney Nock F10-14 00:30:28
100 33 2 47 Emily Carter F35-39 00:30:30
101 68 7 228 Sean McGrath M40-44 00:30:36
102 34 3 562 Victoria Neff F20-24 00:30:44
103 35 8 388 Jill Weaver F40-44 00:30:46
104 69 10 494 Pete Marino M45-49 00:30:50
105 70 33 496 Thomas Marino M10-14 00:30:50
106 36 2 615 Teresa Bloemeke F0-9 00:30:51
107 37 1 56 Ellen Crawford F45-49 00:30:57
108 38 5 130 Joanne Guirguis F30-34 00:30:58
109 71 34 258 Langdon Ogburn M10-14 00:31:02
110 72 3 589 Dennis Lassiter M50-54 00:31:18
111 39 1 597 Diane Paddock F55-59 00:31:19
112 73 2 550 Chris Ertel M35-39 00:31:20
113 40 10 316 Lily Ruocchio F10-14 00:31:22
114 74 2 607 Collin Patrick M0-9 00:31:22
115 41 11 322 Eva Salmon F10-14 00:31:23
116 75 8 580 Ron King M40-44 00:31:24
117 42 12 452 Hannah Perkinson F10-14 00:31:25
118 43 13 22 Bella Benitez F10-14 00:31:27
119 76 9 623 Tom Leary M40-44 00:31:33
120 44 2 294 Winnie Reilly F45-49 00:31:34
121 77 4 191 John Jordan M50-54 00:31:35
122 78 5 317 Kevin Ryan M50-54 00:31:38
123 45 1 190 Ginny Jordan F60-64 00:31:43
124 46 4 585 Hannah Worley F20-24 00:31:43
125 47 6 306 Laura Rinehart F30-34 00:31:43
126 48 14 389 Abby Weitkamp F10-14 00:31:47
127 49 3 268 Renee Overby F35-39 00:31:53
128 50 3 5 Marcella Almeida F15-19 00:31:53
129 51 4 237 elisa miller F35-39 00:32:01
130 79 35 337 Craig Schult M10-14 00:32:01
131 52 9 411 Lisa Yebuah F40-44 00:32:02
132 80 36 534 Chris Dotter M10-14 00:32:05
133 81 8 336 Christopher Schult M15-19 00:32:07
134 53 10 225 Jennifer McGrath F40-44 00:32:09
135 82 10 302 Jack Ridge M40-44 00:32:15
136 83 9 335 Brendan Schult M15-19 00:32:16
137 84 3 204 Mike Kubovcik M35-39 00:32:18
138 85 3 100 Matthew Enzor M30-34 00:32:20
139 54 7 559 Alexia Edwards F30-34 00:32:26
140 86 3 48 Wheeler Case M0-9 00:32:30
141 87 11 220 Wheeler Marshall M40-44 00:32:35
142 88 37 568 Owen Golder M10-14 00:32:37
143 55 11 342 Katie Shearin F40-44 00:32:37
144 89 38 133 Rob Hardy M10-14 00:32:44
145 90 39 219 Josh Markham M10-14 00:32:45
146 56 5 44 Lisa Burnham F35-39 00:32:47
147 91 6 338 Ken Schult M50-54 00:32:52
148 57 6 252 Deneen Nock F35-39 00:32:53
149 92 4 125 Bryant Griffin M0-9 00:33:02
150 93 40 470 Jack Newmiller M10-14 00:33:02
151 58 4 263 Ashleigh Oldham F15-19 00:33:04
152 59 3 320 Angela Salmon F45-49 00:33:05
153 94 5 471 Charlie Schline M0-9 00:33:08
154 95 41 376 Zachary Trainor M10-14 00:33:12
155 60 15 299 Isabelle Ricke F10-14 00:33:12
156 61 16 512 Grace Jackson F10-14 00:33:12
157 96 42 17 Andrew Baxley M10-14 00:33:12
158 62 5 187 Allison Jonkers F15-19 00:33:12
159 97 7 300 Ward Ricke M50-54 00:33:16
160 63 4 472 Kinnan Schline F45-49 00:33:18
161 64 5 214 Sarah Lynch F45-49 00:33:19
162 98 11 265 Dale Oldham M45-49 00:33:30
163 65 6 226 Larissa McGrath F45-49 00:33:31
164 66 12 508 Crystal Wilson F40-44 00:33:35
165 67 7 244 Denise Morgan F45-49 00:33:36
166 99 12 560 Tim Baskerville M45-49 00:33:38
167 68 5 367 Jessica Tate F20-24 00:33:42
168 100 3 467 Ken Eudy M55-59 00:33:47
169 69 8 331 Nelle M Schantz F45-49 00:33:53
170 70 17 341 mackenzie scully F10-14 00:33:53
171 101 43 406 Eric Wright M10-14 00:33:53
172 102 13 97 Ron Elliott M45-49 00:33:55
173 71 8 387 Cara Watson F30-34 00:34:00
174 72 18 57 Katie Crawford F10-14 00:34:02
175 103 10 12 Nicholas Atkins M15-19 00:34:03
176 73 19 506 Sky Temperato F10-14 00:34:03
177 74 9 264 Avajan Oldham F45-49 00:34:04
178 75 7 307 Carey Rivers F35-39 00:34:20
179 76 13 89 Christy Dunn F40-44 00:34:30
180 104 11 449 Fields Moye M15-19 00:34:46
181 77 6 395 Emilee Wessel F15-19 00:34:50
182 78 6 552 Elise Bunn F20-24 00:34:51
183 105 4 553 Jordan Bunn M25-29 00:34:52
184 79 20 538 Katelyn Gamble F10-14 00:35:03
185 106 44 487 Zach Filippi M10-14 00:35:06
186 80 9 172 DeAngelo Jennifer F30-34 00:35:10
187 81 14 296 Holly Reston F40-44 00:35:15
188 82 8 117 Jennie Gentry F35-39 00:35:33
189 83 7 247 Missy Mueller F15-19 00:35:34
190 84 21 543 Megan Alcock F10-14 00:35:36
191 107 14 28 Marcus Bizzell M45-49 00:35:37
192 85 15 127 Stephannie Griffin F40-44 00:35:48
193 108 12 275 Mike Pegram M40-44 00:35:52
194 109 1 29 Bob Brandt M65-69 00:35:53
195 86 2 463 Linda Davis F55-59 00:35:59
196 110 13 513 Dirk Phillips M40-44 00:36:00
197 87 8 221 Emma Marx F15-19 00:36:04
198 88 10 159 Blair Hofmann F30-34 00:36:08
199 111 4 239 Matthew Mitchell M30-34 00:36:08
200 89 9 271 Stephanie Patton F35-39 00:36:28
201 90 2 135 Pam Haven F50-54 00:36:36
202 112 14 136 Walt Haven M40-44 00:36:36
203 91 10 386 Cynthia Walker F45-49 00:36:48
204 113 15 609 Ric Patrick M40-44 00:36:52
205 92 22 555 Amy Williams F10-14 00:37:12
206 93 10 379 Cynthia Tyndall F35-39 00:37:16
207 94 3 85 Katina Dorton F55-59 00:37:16
208 114 2 289 Charles Recorr M65-69 00:37:17
209 115 16 351 Mark Solomon M40-44 00:37:18
210 95 9 188 Caroline Jonkers F15-19 00:37:21
211 96 3 462 Claire Damare F0-9 00:37:21
212 97 23 453 Lorin Pressley F10-14 00:37:32
213 98 11 565 Kelly Damare F45-49 00:37:35
214 99 6 561 Cara Riccitelli F25-29 00:37:38
215 100 1 134 Myra Harris F65-69 00:37:43
216 101 24 619 Mimi Watts F10-14 00:38:01
217 102 25 151 Allison Henry F10-14 00:38:02
218 116 15 541 Paul Qualle M45-49 00:38:04
219 103 26 515 Piper Phillips F10-14 00:38:06
220 104 27 330 Nelle B Schantz F10-14 00:38:10
221 117 16 333 Stuart Schantz M45-49 00:38:15
222 105 4 274 Emory Pegram F0-9 00:38:17
223 106 5 273 Ellie Pegram F0-9 00:38:24
224 107 28 417 Gabby Zerna F10-14 00:38:26
225 118 8 600 Jim Coats M50-54 00:38:29
226 119 6 601 Kyle Coats M0-9 00:38:29
227 108 6 393 Reilly Weitkamp F0-9 00:38:36
228 120 45 10 Sean Armstrong M10-14 00:38:38
229 109 29 383 taylor vandyke F10-14 00:38:42
230 110 11 391 Lainie Weitkamp F35-39 00:38:46
231 111 16 25 Leigh Bhe F40-44 00:38:47
232 112 7 539 Emily Markham F20-24 00:38:48
233 113 12 620 Leslie Watts F35-39 00:38:55
234 114 30 124 Alaina Griffin F10-14 00:39:00
235 115 17 584 Kimberly Denton F40-44 00:39:04
236 116 11 164 Susan Hopper F30-34 00:39:09
237 117 7 454 Melody Rutz F25-29 00:39:27
238 118 8 566 Alexa Smith F20-24 00:39:31
239 119 31 147 Hailey Hendriks F10-14 00:39:36
240 120 18 361 Stephanie Storey F40-44 00:39:36
241 121 7 488 Caleb Jordan M0-9 00:39:36
242 121 32 197 Parker King F10-14 00:39:47
243 122 19 489 Laura Jordan F40-44 00:39:47
244 123 9 448 Caroline Medlin F20-24 00:39:47
245 124 10 443 Katie Koenenn F15-19 00:39:48
246 125 20 96 Lori Elliott F40-44 00:39:57
246 125 11 94 Heather Elliott F15-19 00:39:57
247 126 21 397 Laura Wester F40-44 00:39:58
248 127 22 364 Gina Taffe F40-44 00:39:58
249 122 4 396 Gordon Wester M35-39 00:39:59
250 128 33 432 Lauren Griesedieck F10-14 00:39:59
251 129 34 570 Emily Lee F10-14 00:39:59
252 130 3 520 Paula Fey F50-54 00:40:09
253 131 12 409 Montana Wrigley F15-19 00:41:01
254 123 46 9 Ian Armstrong M10-14 00:41:23
255 132 12 605 Teresa Defrancesco F45-49 00:41:39
256 133 4 596 Betsy Taube F50-54 00:41:40
257 124 17 41 Hunter Burnette M45-49 00:41:55
258 134 23 195 Donna King F40-44 00:41:58
259 135 35 441 Mary Elise Koenenn F10-14 00:41:59
260 136 24 42 Nicole Burnette F40-44 00:42:14
261 137 25 45 Christie Burris F40-44 00:42:15
262 138 13 444 Stacey Koenenn F45-49 00:42:18
263 139 8 189 Cate Jordan F25-29 00:42:29
264 140 13 507 Jordyn Temperato F15-19 00:43:18
265 141 36 457 Kathryn Simmons F10-14 00:43:20
266 125 47 230 Dillon Meares M10-14 00:43:29
267 126 5 146 Eric Hendriks M35-39 00:43:29
268 142 5 544 Joni Perry F50-54 00:43:39
269 143 13 238 Carrie Mitchell F35-39 00:43:47
270 127 5 163 Chris Hopper M30-34 00:43:49
271 128 48 537 Jacob Ramsey M10-14 00:43:50
272 144 7 535 Cici Ramsey F0-9 00:44:26
273 145 26 248 Melissa Neal F40-44 00:44:27
274 146 14 346 Emily Smith F35-39 00:44:27
275 129 8 536 Zachary Ramsey M0-9 00:44:30
276 130 6 431 Steve Egan M35-39 00:44:47
277 131 17 18 Eric Baxley M40-44 00:44:58
278 147 8 19 Kaitlyn Baxley F0-9 00:44:58
279 132 12 304 Bryce Riley M15-19 00:45:26
280 148 37 148 Skylar Hendriks F10-14 00:45:26
281 149 38 27 Tyler Bhe F10-14 00:45:27
282 150 39 392 Libby Weitkamp F10-14 00:45:29
283 133 13 410 Bennett Yeargan M15-19 00:45:29
284 151 14 501 Allyson Young F15-19 00:45:48
285 152 6 502 Lisa Young F50-54 00:45:50
286 153 15 110 Kristi Frencg F35-39 00:46:00
287 154 4 319 barbara salez F55-59 00:46:01
288 155 9 430 Kyla Egan F0-9 00:46:27
289 156 16 327 Elisabeth Saparilas F35-39 00:46:31
290 134 7 118 Peter Ghali M35-39 00:46:43
291 135 49 328 Nicholas Saparilas M10-14 00:46:49
292 157 40 569 Sophie Golder F10-14 00:46:52
293 158 14 567 Carol Golder F45-49 00:46:57
294 159 12 180 krista johnson F30-34 00:47:10
295 160 41 440 Millie Kerr F10-14 00:47:11
296 161 10 439 Rennie Kerr F0-9 00:47:12
297 162 17 194 Wheeler Kim F35-39 00:47:16
298 163 18 139 Jennifer Heard F35-39 00:47:19
299 164 13 249 Amy Needham F30-34 00:47:20
300 165 15 254 Kelly Nolan F45-49 00:48:10
301 166 14 343 Allison Sherwood F30-34 00:48:10
302 167 42 466 Emma Eudy F10-14 00:48:22
303 168 19 377 Heather Trigg F35-39 00:49:12
304 169 2 469 Anita Hall F60-64 00:49:22
305 170 11 593 Samantha Taube F0-9 00:49:57
306 171 20 490 Lori Kutner F35-39 00:50:07
307 136 1 598 Vaughn Paddock M70-74 00:50:14
308 172 5 76 Debbie Dixon F55-59 00:50:16
309 173 9 119 Kelsey Gilchrist F25-29 00:50:48
310 174 21 484 Jacalyn Farris F35-39 00:50:49
311 137 6 120 Kevin Gilchrist M30-34 00:51:00
312 138 8 390 Brad Weitkamp M35-39 00:51:10
313 175 15 216 Katherine Lynn F30-34 00:51:46
314 176 16 59 Carey Cumming F30-34 00:51:50
315 177 17 98 Rebecca English F30-34 00:51:50
316 178 10 282 Jamie Preddy F25-29 00:51:52
317 179 16 181 Robin Johnson F45-49 00:51:55
318 180 7 184 Bennie Jones F50-54 00:51:57
319 139 1 152 Gilbert Hensgen M60-64 00:52:28
320 181 18 178 Kelly Johnson F30-34 00:54:16
321 140 2 33 Michael Brooks M60-64 00:54:33
322 182 6 34 Robin Brooks F55-59 00:54:35
323 183 22 473 Keesha Mayen F35-39 00:55:59
324 184 11 348 Radisha Smith F25-29 00:56:00
325 185 12 355 Hubbard Stack F0-9 00:56:05
326 186 27 354 Elizabeth Stack F40-44 00:56:16
327 187 7 312 Cheryl Ross F55-59 00:58:00
328 141 4 311 Bobby Ross M55-59 00:58:00
329 188 19 314 Meredith Ross F30-34 00:58:26
330 189 8 154 Linda Hicks F55-59 00:59:16
331 190 17 37 Lisa Burch F45-49 01:01:45
332 142 18 90 Jeff Dunn M45-49 01:01:47
333 191 191 30 Chris Brennan Female 01:11:58
334 143 143 31 Tom Brennan Male 01:11:58
335 192 43 492 Christina Marino F10-14 01:15:42
336 193 13 511 Victoria Boone F0-9 01:21:34